Califon, New Jersey
Current Conditions -  °F | °C
As of 2:53 AM on Thursday 27 Nov 2014 (Local Time) from KSMQ Reporting Station
Overcast Overcast  
Wind Chill: 36°   Ceiling: 6000
Heat Index: 36°   Visibility: 10mi
Dew Point: 31°   Wind: 0mph
Humidity: 82%   Direction: NA
Pressure: 29.91"   Gusts: NA
Location:  40.72°N, 74.84°W
Report Text: KSMQ 270753Z AUTO 00000KT 10SM OVC060 02/M01 A2991 RMK AO2 SLP130 T00221006
Loading
Personal Weather Stations






























Interactive Weather Map New forecast layout! Learn more

10-Day Weather Forecast

Advertisements
Track Severe Weather on mobile